createdAt,value
2023-09-17T00:00:35.375Z,3.80
2023-09-17T00:03:22.829Z,3.97
2023-09-17T00:05:55.498Z,4.55
2023-09-17T00:08:28.181Z,4.25
2023-09-17T00:10:56.171Z,4.78
2023-09-17T00:13:23.943Z,4.45
2023-09-17T00:16:00.743Z,6.03
2023-09-17T00:18:33.368Z,5.60
2023-09-17T00:21:01.252Z,5.93
2023-09-17T00:23:33.322Z,4.32
2023-09-17T00:26:05.978Z,4.03
2023-09-17T00:28:33.302Z,3.78
2023-09-17T00:31:26.552Z,3.95
2023-09-17T00:33:54.080Z,4.80
2023-09-17T00:36:30.970Z,5.43
2023-09-17T00:39:02.584Z,4.82
2023-09-17T00:41:34.917Z,5.13
2023-09-17T00:44:02.378Z,4.55
2023-09-17T00:46:32.957Z,3.90
2023-09-17T00:49:05.447Z,3.38
2023-09-17T00:51:33.276Z,4.78
2023-09-17T00:54:00.795Z,3.42
2023-09-17T00:56:33.241Z,4.95
2023-09-17T00:59:00.991Z,3.30
2023-09-17T01:01:30.747Z,4.00
2023-09-17T01:04:00.866Z,3.58
2023-09-17T01:06:29.288Z,4.65
2023-09-17T01:08:57.510Z,3.28
2023-09-17T01:11:26.471Z,3.42
2023-09-17T01:13:54.678Z,4.05
2023-09-17T01:16:27.172Z,3.85
2023-09-17T01:19:12.188Z,3.38
2023-09-17T01:21:57.403Z,3.42
2023-09-17T01:24:29.691Z,4.20
2023-09-17T01:27:03.521Z,5.05
2023-09-17T01:29:35.997Z,5.32
2023-09-17T01:32:04.085Z,4.13
2023-09-17T01:34:32.239Z,3.50
2023-09-17T01:37:03.840Z,3.88
2023-09-17T01:39:42.361Z,4.30
2023-09-17T01:42:16.222Z,4.00
2023-09-17T01:44:46.124Z,4.57
2023-09-17T01:47:14.760Z,5.50
2023-09-17T01:49:43.176Z,3.88
2023-09-17T01:52:12.339Z,5.75
2023-09-17T01:54:40.039Z,6.25
2023-09-17T01:57:07.692Z,5.82
2023-09-17T01:59:36.606Z,5.15
2023-09-17T02:02:04.716Z,4.00
2023-09-17T02:04:32.232Z,4.55
2023-09-17T02:07:00.208Z,3.72
2023-09-17T02:09:27.634Z,5.53
2023-09-17T02:11:55.464Z,4.10
2023-09-17T02:14:22.812Z,4.03
2023-09-17T02:16:55.967Z,4.35
2023-09-17T02:19:23.504Z,4.05
2023-09-17T02:21:51.369Z,3.05
2023-09-17T02:24:18.979Z,4.20
2023-09-17T02:26:46.817Z,4.50
2023-09-17T02:29:14.407Z,8.85
2023-09-17T02:31:42.153Z,5.78
2023-09-17T02:34:11.000Z,6.25
2023-09-17T02:36:38.900Z,5.10
2023-09-17T02:39:10.877Z,5.05
2023-09-17T02:41:38.710Z,3.72
2023-09-17T02:44:06.266Z,4.50
2023-09-17T02:46:36.445Z,4.20
2023-09-17T02:49:03.979Z,3.63
2023-09-17T02:51:37.091Z,3.17
2023-09-17T02:54:10.451Z,3.40
2023-09-17T02:56:39.700Z,3.10
2023-09-17T02:59:11.645Z,3.22
2023-09-17T03:01:44.027Z,3.42
2023-09-17T03:07:12.613Z,3.03
2023-09-17T03:09:49.400Z,3.38
2023-09-17T03:12:17.281Z,4.60
2023-09-17T03:14:44.691Z,4.90
2023-09-17T03:17:12.561Z,3.58
2023-09-17T03:19:40.065Z,3.10
2023-09-17T03:22:24.545Z,3.17
2023-09-17T03:25:03.224Z,5.13
2023-09-17T03:27:37.494Z,4.50
2023-09-17T03:30:05.856Z,4.70
2023-09-17T03:33:01.923Z,4.93
2023-09-17T03:35:32.190Z,4.72
2023-09-17T03:38:10.597Z,4.30
2023-09-17T03:40:42.491Z,4.28
2023-09-17T03:43:10.610Z,3.58
2023-09-17T03:45:38.217Z,5.07
2023-09-17T03:48:07.092Z,5.30
2023-09-17T03:50:35.314Z,4.80
2023-09-17T03:53:04.122Z,3.75
2023-09-17T03:55:37.257Z,3.85
2023-09-17T03:58:05.406Z,3.55
2023-09-17T04:00:32.900Z,4.20
2023-09-17T04:03:00.739Z,4.20
2023-09-17T04:05:28.196Z,3.65
2023-09-17T04:07:56.083Z,5.35
2023-09-17T04:10:23.602Z,5.05
2023-09-17T04:12:53.013Z,4.03
2023-09-17T04:15:20.497Z,5.72
2023-09-17T04:17:49.787Z,4.78
2023-09-17T04:20:17.705Z,3.72
2023-09-17T04:22:46.268Z,3.83
2023-09-17T04:25:14.449Z,3.10
2023-09-17T04:27:43.231Z,4.18
2023-09-17T04:30:17.193Z,3.75
2023-09-17T04:32:46.859Z,4.93
2023-09-17T04:35:15.582Z,5.47
2023-09-17T04:37:43.453Z,4.35
2023-09-17T04:40:11.436Z,4.10
2023-09-17T04:42:41.048Z,4.05
2023-09-17T04:45:10.885Z,3.38
2023-09-17T04:47:44.009Z,4.20
2023-09-17T04:50:11.824Z,4.50
2023-09-17T04:52:39.655Z,4.82
2023-09-17T04:55:07.675Z,4.40
2023-09-17T04:57:35.489Z,3.85
2023-09-17T05:00:09.400Z,3.85
2023-09-17T05:02:42.425Z,3.30
2023-09-17T05:05:21.704Z,3.92
2023-09-17T05:07:56.457Z,3.40
2023-09-17T05:10:24.243Z,3.42
2023-09-17T05:12:56.432Z,3.58
2023-09-17T05:15:30.406Z,3.63
2023-09-17T05:18:03.424Z,4.05
2023-09-17T05:20:37.361Z,4.63
2023-09-17T05:23:12.382Z,3.88
2023-09-17T05:25:44.481Z,3.45
2023-09-17T05:28:12.552Z,3.88
2023-09-17T05:30:41.124Z,3.58
2023-09-17T05:33:13.416Z,3.70
2023-09-17T05:35:46.043Z,3.80
2023-09-17T05:38:14.018Z,3.53
2023-09-17T05:40:41.482Z,4.05
2023-09-17T05:43:09.418Z,3.90
2023-09-17T05:45:37.079Z,4.00
2023-09-17T05:48:06.003Z,3.92
2023-09-17T05:50:33.766Z,3.92
2023-09-17T05:53:13.595Z,4.93
2023-09-17T05:55:51.442Z,4.32
2023-09-17T05:58:19.580Z,3.75
2023-09-17T06:00:49.829Z,3.95
2023-09-17T06:03:20.895Z,4.03
2023-09-17T06:05:48.758Z,3.78
2023-09-17T06:08:30.884Z,3.80
2023-09-17T06:10:58.422Z,3.90
2023-09-17T06:13:30.404Z,4.20
2023-09-17T06:15:59.799Z,4.30
2023-09-17T06:18:27.607Z,4.10
2023-09-17T06:20:55.262Z,4.07
2023-09-17T06:23:23.145Z,3.88
2023-09-17T06:25:51.951Z,3.90
2023-09-17T06:28:19.998Z,3.60
2023-09-17T06:30:47.584Z,3.50
2023-09-17T06:33:15.598Z,4.00
2023-09-17T06:35:43.081Z,4.32
2023-09-17T06:38:10.772Z,3.40
2023-09-17T06:40:38.337Z,3.53
2023-09-17T06:43:07.783Z,3.33
2023-09-17T06:45:35.228Z,3.47
2023-09-17T06:48:08.052Z,4.65
2023-09-17T06:50:35.569Z,3.60
2023-09-17T06:53:03.812Z,3.83
2023-09-17T06:55:31.318Z,3.38
2023-09-17T06:57:59.098Z,3.50
2023-09-17T07:00:31.906Z,3.03
2023-09-17T07:02:59.742Z,3.25
2023-09-17T07:05:27.224Z,2.90
2023-09-17T07:07:55.214Z,2.97
2023-09-17T07:10:22.778Z,3.40
2023-09-17T07:12:52.227Z,3.40
2023-09-17T07:15:19.789Z,3.10
2023-09-17T07:17:48.991Z,3.55
2023-09-17T07:20:16.381Z,3.22
2023-09-17T07:22:45.068Z,3.30
2023-09-17T07:25:20.503Z,3.22
2023-09-17T07:28:14.595Z,3.22
2023-09-17T07:30:57.597Z,3.30
2023-09-17T07:33:35.072Z,2.40
2023-09-17T07:36:11.698Z,3.08
2023-09-17T07:39:10.121Z,3.55
2023-09-17T07:41:52.739Z,3.10
2023-09-17T07:44:42.400Z,3.17
2023-09-17T07:47:34.893Z,2.45
2023-09-17T07:50:36.659Z,3.55
2023-09-17T07:53:14.638Z,3.15
2023-09-17T07:56:21.520Z,3.42
2023-09-17T07:58:59.142Z,2.78
2023-09-17T08:04:36.261Z,2.80
2023-09-17T08:07:31.746Z,3.40
2023-09-17T08:10:17.540Z,3.58
2023-09-17T08:13:03.501Z,3.35
2023-09-17T08:15:37.672Z,3.70
2023-09-17T08:20:58.694Z,3.42
2023-09-17T08:29:48.618Z,3.05
2023-09-17T08:32:25.770Z,3.30
2023-09-17T08:34:58.131Z,3.28
2023-09-17T08:39:58.318Z,3.08
2023-09-17T08:42:26.612Z,2.83
2023-09-17T08:45:01.903Z,3.13
2023-09-17T08:47:30.028Z,3.35
2023-09-17T08:50:02.452Z,3.28
2023-09-17T08:52:34.785Z,3.28
2023-09-17T08:55:06.929Z,3.28
2023-09-17T08:57:40.924Z,3.03
2023-09-17T09:00:22.703Z,2.97
2023-09-17T09:02:57.363Z,3.13
2023-09-17T09:05:31.560Z,2.75
2023-09-17T09:08:00.072Z,2.95
2023-09-17T09:10:27.625Z,3.00
2023-09-17T09:12:56.645Z,3.10
2023-09-17T09:15:33.148Z,3.22
2023-09-17T09:18:06.398Z,2.70
2023-09-17T09:20:36.711Z,2.70
2023-09-17T09:23:05.299Z,2.60
2023-09-17T09:25:33.104Z,2.58
2023-09-17T09:28:01.175Z,2.92
2023-09-17T09:30:41.441Z,3.05
2023-09-17T09:33:09.687Z,2.90
2023-09-17T09:35:42.405Z,3.05
2023-09-17T09:38:12.277Z,2.92
2023-09-17T09:40:40.248Z,2.70
2023-09-17T09:43:31.595Z,3.75
2023-09-17T09:46:21.412Z,3.22
2023-09-17T09:49:00.458Z,2.83
2023-09-17T09:51:33.328Z,2.95
2023-09-17T09:54:07.302Z,3.08
2023-09-17T09:56:35.118Z,3.33
2023-09-17T09:59:03.155Z,2.97
2023-09-17T10:01:39.363Z,2.83
2023-09-17T10:04:17.438Z,2.63
2023-09-17T10:06:47.216Z,3.17
2023-09-17T10:09:17.325Z,3.13
2023-09-17T10:11:44.887Z,2.90
2023-09-17T10:14:17.424Z,2.67
2023-09-17T10:16:56.977Z,2.67
2023-09-17T10:19:26.654Z,2.78
2023-09-17T10:21:54.886Z,3.10
2023-09-17T10:24:24.457Z,2.97
2023-09-17T10:26:57.111Z,3.10
2023-09-17T10:29:29.679Z,2.92
2023-09-17T10:31:59.834Z,2.65
2023-09-17T10:34:29.299Z,3.00
2023-09-17T10:37:01.460Z,2.80
2023-09-17T10:39:42.501Z,3.25
2023-09-17T10:42:15.508Z,2.58
2023-09-17T10:44:50.536Z,3.22
2023-09-17T10:47:26.469Z,3.03
2023-09-17T10:49:56.182Z,2.47
2023-09-17T10:52:24.110Z,2.45
2023-09-17T10:54:56.215Z,2.75
2023-09-17T10:57:43.408Z,2.50
2023-09-17T11:00:18.654Z,2.65
2023-09-17T11:02:55.849Z,2.72
2023-09-17T11:05:33.442Z,2.67
2023-09-17T11:08:04.747Z,2.78
2023-09-17T11:10:42.530Z,2.67
2023-09-17T11:16:07.373Z,2.58
2023-09-17T11:19:26.510Z,2.70
2023-09-17T11:25:07.435Z,2.80
2023-09-17T11:28:02.414Z,2.50
2023-09-17T11:34:01.458Z,2.90
2023-09-17T11:42:57.922Z,2.60
2023-09-17T11:48:16.534Z,2.55
2023-09-17T13:00:54.634Z,2.38
2023-09-17T15:05:29.418Z,2.53
2023-09-17T15:08:02.549Z,2.63
2023-09-17T15:10:35.391Z,2.20
2023-09-17T15:13:17.314Z,2.30
2023-09-17T15:15:49.759Z,2.20
2023-09-17T15:18:18.325Z,2.00
2023-09-17T15:20:59.123Z,2.45
2023-09-17T15:23:31.533Z,2.30
2023-09-17T15:26:00.527Z,2.10
2023-09-17T15:28:28.790Z,2.47
2023-09-17T15:31:01.397Z,2.00
2023-09-17T15:33:29.862Z,2.05
2023-09-17T15:36:09.319Z,2.30
2023-09-17T15:38:51.638Z,2.20
2023-09-17T15:41:28.172Z,2.05
2023-09-17T15:44:13.010Z,2.10
2023-09-17T15:46:50.581Z,2.30
2023-09-17T15:49:32.563Z,2.10
2023-09-17T15:52:10.082Z,2.75
2023-09-17T15:55:01.984Z,2.88
2023-09-17T15:57:35.569Z,2.45
2023-09-17T16:00:03.899Z,2.53
2023-09-17T16:02:39.710Z,2.10
2023-09-17T16:05:07.931Z,2.13
2023-09-17T16:07:40.555Z,2.17
2023-09-17T16:10:09.520Z,2.28
2023-09-17T16:12:37.569Z,2.42
2023-09-17T16:15:05.700Z,2.35
2023-09-17T16:17:34.001Z,2.53
2023-09-17T16:20:01.789Z,2.60
2023-09-17T16:22:30.193Z,2.08
2023-09-17T16:24:59.492Z,2.60
2023-09-17T16:27:36.454Z,2.00
2023-09-17T16:30:09.450Z,2.33
2023-09-17T16:32:56.642Z,2.58
2023-09-17T16:35:41.917Z,2.88
2023-09-17T16:38:29.548Z,2.35
2023-09-17T16:41:29.758Z,2.90
2023-09-17T16:44:36.481Z,2.30
2023-09-17T16:47:15.748Z,2.38
2023-09-17T16:49:51.167Z,2.20
2023-09-17T16:52:32.600Z,2.30
2023-09-17T16:55:05.144Z,2.50
2023-09-17T16:57:46.810Z,2.20
2023-09-17T17:00:24.040Z,2.50
2023-09-17T17:03:17.522Z,2.25
2023-09-17T17:22:57.590Z,2.10
2023-09-17T17:32:15.572Z,2.33
2023-09-17T17:38:07.685Z,2.45
2023-09-17T17:41:09.639Z,2.38
2023-09-17T17:44:02.635Z,2.47
2023-09-17T17:52:24.530Z,2.30
2023-09-17T17:55:08.720Z,2.58
2023-09-17T17:57:57.492Z,2.60
2023-09-17T18:00:32.535Z,2.63
2023-09-17T18:03:26.553Z,2.45
2023-09-17T18:06:10.511Z,2.50
2023-09-17T18:09:03.469Z,2.90
2023-09-17T18:11:43.540Z,2.60
2023-09-17T18:14:25.815Z,3.53
2023-09-17T18:17:00.711Z,3.72
2023-09-17T18:19:33.572Z,3.40
2023-09-17T18:22:07.378Z,3.72
2023-09-17T18:24:49.528Z,3.67
2023-09-17T18:27:28.424Z,3.40
2023-09-17T18:32:55.120Z,2.75
2023-09-17T18:35:34.556Z,2.90
2023-09-17T18:38:06.990Z,3.30
2023-09-17T18:40:37.473Z,2.72
2023-09-17T18:43:18.393Z,3.97
2023-09-17T18:46:11.460Z,3.45
2023-09-17T18:48:43.574Z,2.70
2023-09-17T18:51:12.835Z,3.42
2023-09-17T18:53:47.049Z,2.83
2023-09-17T18:56:19.615Z,2.88
2023-09-17T18:58:56.530Z,2.90
2023-09-17T19:01:43.647Z,3.30
2023-09-17T19:04:19.480Z,3.30
2023-09-17T19:06:52.689Z,3.67
2023-09-17T19:09:26.572Z,3.20
2023-09-17T19:12:00.495Z,3.30
2023-09-17T19:14:52.618Z,3.63
2023-09-17T19:17:38.579Z,3.85
2023-09-17T19:20:08.841Z,4.05
2023-09-17T19:22:47.550Z,3.75
2023-09-17T19:25:26.475Z,4.57
2023-09-17T19:28:10.565Z,3.78
2023-09-17T19:30:44.810Z,2.95
2023-09-17T19:33:32.544Z,2.70
2023-09-17T19:36:01.976Z,2.70
2023-09-17T19:38:44.515Z,3.13
2023-09-17T19:41:21.527Z,3.20
2023-09-17T19:43:54.583Z,3.28
2023-09-17T19:46:35.644Z,3.10
2023-09-17T19:55:52.220Z,3.83
2023-09-17T19:58:29.650Z,3.05
2023-09-17T20:01:21.597Z,4.10
2023-09-17T20:04:03.805Z,3.28
2023-09-17T20:06:56.046Z,3.33
2023-09-17T20:09:36.144Z,3.05
2023-09-17T20:12:13.616Z,4.13
2023-09-17T20:14:42.099Z,3.08
2023-09-17T20:17:14.453Z,3.38
2023-09-17T20:19:51.838Z,2.97
2023-09-17T20:22:35.434Z,3.95
2023-09-17T20:25:03.073Z,4.90
2023-09-17T20:27:40.420Z,3.28
2023-09-17T20:30:17.569Z,3.20
2023-09-17T20:32:52.757Z,3.00
2023-09-17T20:35:20.462Z,3.20
2023-09-17T20:38:12.454Z,3.70
2023-09-17T20:40:44.772Z,3.60
2023-09-17T20:43:31.474Z,3.30
2023-09-17T20:45:59.458Z,3.45
2023-09-17T20:48:31.564Z,2.97
2023-09-17T20:51:09.461Z,4.65
2023-09-17T20:53:50.700Z,4.22
2023-09-17T20:56:19.790Z,4.82
2023-09-17T20:58:57.378Z,4.80
2023-09-17T21:01:29.449Z,3.80
2023-09-17T21:03:57.620Z,4.15
2023-09-17T21:06:25.478Z,4.65
2023-09-17T21:08:54.983Z,3.95
2023-09-17T21:11:24.174Z,4.20
2023-09-17T21:14:02.440Z,3.35
2023-09-17T21:16:36.406Z,4.22
2023-09-17T21:19:18.517Z,3.05
2023-09-17T21:21:50.967Z,2.90
2023-09-17T21:24:25.791Z,3.10
2023-09-17T21:26:53.751Z,3.90
2023-09-17T21:29:30.495Z,3.40
2023-09-17T21:32:11.472Z,2.60
2023-09-17T21:34:43.732Z,3.50
2023-09-17T21:37:15.393Z,4.00
2023-09-17T21:39:49.638Z,4.68
2023-09-17T21:42:17.122Z,3.67
2023-09-17T21:44:44.987Z,3.45
2023-09-17T21:47:12.410Z,3.50
2023-09-17T21:49:40.514Z,3.60
2023-09-17T21:52:07.885Z,2.83
2023-09-17T21:54:35.766Z,3.60
2023-09-17T21:57:18.036Z,2.90
2023-09-17T21:59:48.721Z,2.70
2023-09-17T22:02:16.678Z,3.63
2023-09-17T22:04:44.677Z,3.58
2023-09-17T22:07:12.133Z,4.25
2023-09-17T22:09:40.622Z,11.88
2023-09-17T22:12:09.776Z,10.00
2023-09-17T22:14:38.118Z,5.00
2023-09-17T22:17:05.780Z,3.38
2023-09-17T22:19:33.560Z,3.97
2023-09-17T22:22:01.084Z,3.70
2023-09-17T22:24:28.909Z,3.60
2023-09-17T22:26:56.370Z,3.97
2023-09-17T22:29:28.967Z,3.13
2023-09-17T22:31:56.981Z,2.38
2023-09-17T22:34:24.529Z,2.70
2023-09-17T22:36:52.382Z,2.25
2023-09-17T22:39:19.897Z,2.42
2023-09-17T22:41:47.583Z,2.70
2023-09-17T22:44:23.359Z,2.85
2023-09-17T22:47:00.289Z,2.50
2023-09-17T22:49:27.812Z,2.80
2023-09-17T22:51:55.924Z,2.60
2023-09-17T22:54:23.475Z,3.00
2023-09-17T22:56:51.192Z,3.10
2023-09-17T22:59:18.630Z,3.65
2023-09-17T23:01:46.549Z,2.92
2023-09-17T23:04:15.208Z,2.63
2023-09-17T23:06:43.103Z,3.17
2023-09-17T23:09:10.581Z,2.70
2023-09-17T23:11:38.266Z,3.10
2023-09-17T23:14:05.679Z,3.10
2023-09-17T23:16:33.567Z,3.00
2023-09-17T23:19:00.895Z,2.90
2023-09-17T23:21:30.015Z,3.35
2023-09-17T23:23:57.546Z,2.58
2023-09-17T23:26:25.453Z,3.60
2023-09-17T23:28:53.099Z,3.40
2023-09-17T23:31:21.026Z,5.32
2023-09-17T23:33:48.414Z,3.30
2023-09-17T23:36:16.057Z,3.97
2023-09-17T23:38:44.847Z,4.10
2023-09-17T23:41:12.843Z,3.65
2023-09-17T23:43:40.375Z,3.30
2023-09-17T23:46:08.218Z,2.55
2023-09-17T23:48:35.578Z,3.30
2023-09-17T23:51:03.386Z,3.00
2023-09-17T23:53:34.179Z,3.30
2023-09-17T23:56:03.732Z,3.30
2023-09-17T23:58:31.266Z,4.75
